createdAt,value
2023-02-16T00:00:17.250Z,1.41
2023-02-16T00:03:32.512Z,1.40
2023-02-16T00:06:46.062Z,1.35
2023-02-16T00:09:59.761Z,1.28
2023-02-16T00:13:37.149Z,1.28
2023-02-16T00:16:50.725Z,1.30
2023-02-16T00:20:06.739Z,1.26
2023-02-16T00:23:20.770Z,1.28
2023-02-16T00:26:35.651Z,1.28
2023-02-16T00:29:49.301Z,1.24
2023-02-16T00:33:02.892Z,1.17
2023-02-16T00:36:18.213Z,1.18
2023-02-16T00:39:32.717Z,1.16
2023-02-16T00:42:49.075Z,1.10
2023-02-16T00:46:03.243Z,1.03
2023-02-16T00:49:20.294Z,1.03
2023-02-16T00:52:38.909Z,0.89
2023-02-16T00:55:52.568Z,0.82
2023-02-16T00:59:08.246Z,0.72
2023-02-16T01:02:23.784Z,0.66
2023-02-16T01:05:37.274Z,0.62
2023-02-16T01:09:04.726Z,0.73
2023-02-16T01:12:22.558Z,0.71
2023-02-16T01:15:36.486Z,0.70
2023-02-16T01:18:50.338Z,0.71
2023-02-16T01:22:06.442Z,0.69
2023-02-16T01:25:20.920Z,0.61
2023-02-16T01:28:34.592Z,0.61
2023-02-16T01:31:48.209Z,0.70
2023-02-16T01:35:01.941Z,0.69
2023-02-16T01:38:20.778Z,0.56
2023-02-16T01:41:43.111Z,0.57
2023-02-16T01:44:58.979Z,0.62
2023-02-16T01:48:16.928Z,0.60
2023-02-16T01:51:32.972Z,0.69
2023-02-16T01:54:50.309Z,0.64
2023-02-16T01:58:07.355Z,0.67
2023-02-16T02:01:49.822Z,0.62
2023-02-16T02:05:19.658Z,0.58
2023-02-16T02:08:36.287Z,0.52
2023-02-16T02:11:53.738Z,0.44
2023-02-16T02:15:09.787Z,0.36
2023-02-16T02:18:23.578Z,0.29
2023-02-16T02:22:04.548Z,0.26
2023-02-16T02:25:43.239Z,0.27
2023-02-16T02:29:01.409Z,0.12
2023-02-16T02:32:20.878Z,0.12
2023-02-16T02:35:41.389Z,-0.04
2023-02-16T02:39:01.589Z,-0.06
2023-02-16T02:42:19.660Z,-0.05
2023-02-16T02:45:37.674Z,-0.12
2023-02-16T02:48:51.402Z,-0.13
2023-02-16T02:52:05.567Z,-0.18
2023-02-16T02:55:48.353Z,-0.28
2023-02-16T02:59:19.312Z,-0.29
2023-02-16T03:02:33.613Z,-0.29
2023-02-16T03:05:51.213Z,-0.31
2023-02-16T03:09:09.014Z,-0.33
2023-02-16T03:12:37.100Z,-0.40
2023-02-16T03:15:54.094Z,-0.37
2023-02-16T03:19:23.710Z,-0.40
2023-02-16T03:22:53.124Z,-0.34
2023-02-16T03:26:21.268Z,-0.30
2023-02-16T03:29:35.580Z,-0.31
2023-02-16T03:32:49.320Z,-0.29
2023-02-16T03:36:03.831Z,-0.25
2023-02-16T03:39:19.730Z,-0.21
2023-02-16T03:42:33.327Z,-0.27
2023-02-16T03:45:49.663Z,-0.20
2023-02-16T03:49:03.290Z,-0.30
2023-02-16T03:52:16.954Z,-0.37
2023-02-16T03:55:30.485Z,-0.41
2023-02-16T03:58:46.802Z,-0.35
2023-02-16T04:02:09.550Z,-0.41
2023-02-16T04:05:23.352Z,-0.43
2023-02-16T04:08:37.151Z,-0.44
2023-02-16T04:12:04.801Z,-0.42
2023-02-16T04:15:20.707Z,-0.40
2023-02-16T04:18:34.712Z,-0.43
2023-02-16T04:21:48.309Z,-0.43
2023-02-16T04:25:01.905Z,-0.42
2023-02-16T04:28:15.474Z,-0.42
2023-02-16T04:31:29.150Z,-0.42
2023-02-16T04:34:42.784Z,-0.50
2023-02-16T04:37:56.457Z,-0.44
2023-02-16T04:41:10.493Z,-0.40
2023-02-16T04:44:25.832Z,-0.39
2023-02-16T04:47:39.480Z,-0.40
2023-02-16T04:50:53.219Z,-0.37
2023-02-16T04:54:06.800Z,-0.40
2023-02-16T04:57:21.982Z,-0.36
2023-02-16T05:00:36.604Z,-0.35
2023-02-16T05:03:50.360Z,-0.35
2023-02-16T05:07:04.484Z,-0.34
2023-02-16T05:10:18.364Z,-0.35
2023-02-16T05:13:46.425Z,-0.30
2023-02-16T05:16:59.959Z,-0.36
2023-02-16T05:20:15.808Z,-0.34
2023-02-16T05:23:29.760Z,-0.33
2023-02-16T05:26:44.506Z,-0.32
2023-02-16T05:29:58.743Z,-0.32
2023-02-16T05:33:13.851Z,-0.36
2023-02-16T05:36:28.101Z,-0.38
2023-02-16T05:39:42.188Z,-0.33
2023-02-16T05:42:59.405Z,-0.34
2023-02-16T05:46:16.218Z,-0.37
2023-02-16T05:49:30.449Z,-0.40
2023-02-16T05:52:44.046Z,-0.38
2023-02-16T05:55:57.762Z,-0.35
2023-02-16T05:59:11.438Z,-0.34
2023-02-16T06:02:25.046Z,-0.31
2023-02-16T06:05:39.048Z,-0.25
2023-02-16T06:08:52.590Z,-0.23
2023-02-16T06:12:06.348Z,-0.21
2023-02-16T06:15:20.056Z,-0.23
2023-02-16T06:18:34.035Z,-0.11
2023-02-16T06:21:48.140Z,0.04
2023-02-16T06:25:01.819Z,0.10
2023-02-16T06:28:15.419Z,0.32
2023-02-16T06:31:30.102Z,0.40
2023-02-16T06:34:44.187Z,0.42
2023-02-16T06:37:59.815Z,0.51
2023-02-16T06:41:14.090Z,0.69
2023-02-16T06:44:28.088Z,1.04
2023-02-16T06:47:42.015Z,1.27
2023-02-16T06:50:58.257Z,1.56
2023-02-16T06:54:12.129Z,1.97
2023-02-16T06:57:26.066Z,2.47
2023-02-16T07:00:40.006Z,2.74
2023-02-16T07:03:53.844Z,2.71
2023-02-16T07:07:07.474Z,2.88
2023-02-16T07:10:24.266Z,3.34
2023-02-16T07:13:41.111Z,3.18
2023-02-16T07:16:54.892Z,3.38
2023-02-16T07:20:09.484Z,3.31
2023-02-16T07:23:27.032Z,3.52
2023-02-16T07:26:43.272Z,3.67
2023-02-16T07:29:58.131Z,3.70
2023-02-16T07:33:14.758Z,4.31
2023-02-16T07:36:30.439Z,4.01
2023-02-16T07:39:44.173Z,4.60
2023-02-16T07:43:06.330Z,4.67
2023-02-16T07:46:20.044Z,5.11
2023-02-16T07:49:33.787Z,5.07
2023-02-16T07:52:47.480Z,5.17
2023-02-16T07:56:01.986Z,5.27
2023-02-16T07:59:15.890Z,5.46
2023-02-16T08:02:30.237Z,5.34
2023-02-16T08:05:45.480Z,5.41
2023-02-16T08:08:59.270Z,4.93
2023-02-16T08:12:18.009Z,5.25
2023-02-16T08:15:31.663Z,5.07
2023-02-16T08:18:45.787Z,4.89
2023-02-16T08:22:00.201Z,4.70
2023-02-16T08:25:16.662Z,4.91
2023-02-16T08:28:30.272Z,4.93
2023-02-16T08:31:44.812Z,5.07
2023-02-16T08:34:58.774Z,5.08
2023-02-16T08:38:12.507Z,5.28
2023-02-16T08:41:28.243Z,5.31
2023-02-16T08:44:42.767Z,5.27
2023-02-16T08:47:57.076Z,5.79
2023-02-16T08:51:11.645Z,5.91
2023-02-16T08:54:27.948Z,5.88
2023-02-16T08:57:42.538Z,5.71
2023-02-16T09:00:56.662Z,5.61
2023-02-16T09:04:10.427Z,5.57
2023-02-16T09:07:24.445Z,5.50
2023-02-16T09:10:38.067Z,5.37
2023-02-16T09:13:55.076Z,5.27
2023-02-16T09:17:24.832Z,5.54
2023-02-16T09:20:40.459Z,5.76
2023-02-16T09:23:56.382Z,5.83
2023-02-16T09:27:10.076Z,5.67
2023-02-16T09:30:24.642Z,5.68
2023-02-16T09:33:39.356Z,5.55
2023-02-16T09:36:53.777Z,5.54
2023-02-16T09:40:08.081Z,5.76
2023-02-16T09:43:27.264Z,5.81
2023-02-16T09:46:41.684Z,5.83
2023-02-16T09:49:57.591Z,5.77
2023-02-16T09:53:18.277Z,5.88
2023-02-16T09:56:36.928Z,6.07
2023-02-16T09:59:56.757Z,6.21
2023-02-16T10:03:15.876Z,6.31
2023-02-16T10:06:58.048Z,6.42
2023-02-16T10:10:13.203Z,6.62
2023-02-16T10:13:32.695Z,6.72
2023-02-16T10:16:48.539Z,6.76
2023-02-16T10:20:07.675Z,6.75
2023-02-16T10:23:27.665Z,6.78
2023-02-16T10:26:46.989Z,7.06
2023-02-16T10:30:02.007Z,7.09
2023-02-16T10:33:23.605Z,7.31
2023-02-16T10:36:47.542Z,7.45
2023-02-16T10:40:07.428Z,7.43
2023-02-16T10:43:24.670Z,7.59
2023-02-16T10:46:41.948Z,7.82
2023-02-16T10:50:02.671Z,7.80
2023-02-16T10:53:21.510Z,7.76
2023-02-16T10:56:53.185Z,7.89
2023-02-16T11:00:12.264Z,8.01
2023-02-16T11:03:29.885Z,8.15
2023-02-16T11:06:44.630Z,8.06
2023-02-16T11:10:01.899Z,8.30
2023-02-16T11:13:25.805Z,8.35
2023-02-16T11:16:40.012Z,8.28
2023-02-16T11:20:01.844Z,8.34
2023-02-16T11:23:25.227Z,8.41
2023-02-16T11:26:41.267Z,8.49
2023-02-16T11:29:55.696Z,8.60
2023-02-16T11:33:13.116Z,8.63
2023-02-16T11:36:35.350Z,8.62
2023-02-16T11:39:55.294Z,8.39
2023-02-16T11:43:09.802Z,8.46
2023-02-16T11:46:26.056Z,8.17
2023-02-16T11:49:42.352Z,8.28
2023-02-16T11:52:58.124Z,8.37
2023-02-16T11:56:26.170Z,8.37
2023-02-16T11:59:43.630Z,8.50
2023-02-16T12:03:17.080Z,8.40
2023-02-16T12:06:37.386Z,8.33
2023-02-16T12:09:55.788Z,8.42
2023-02-16T12:13:13.123Z,8.70
2023-02-16T12:16:33.016Z,8.76
2023-02-16T12:19:50.654Z,8.86
2023-02-16T12:23:08.870Z,8.82
2023-02-16T12:26:45.365Z,8.83
2023-02-16T12:30:04.169Z,8.73
2023-02-16T12:33:27.510Z,8.56
2023-02-16T12:36:58.615Z,8.62
2023-02-16T12:40:17.970Z,8.56
2023-02-16T12:43:42.728Z,8.54
2023-02-16T12:47:22.697Z,8.62
2023-02-16T12:50:39.028Z,8.63
2023-02-16T12:53:58.886Z,8.63
2023-02-16T12:57:17.552Z,8.62
2023-02-16T13:00:38.098Z,8.65
2023-02-16T13:04:03.252Z,8.63
2023-02-16T13:07:24.148Z,8.69
2023-02-16T13:10:42.092Z,8.71
2023-02-16T13:14:02.445Z,8.73
2023-02-16T13:17:19.753Z,8.72
2023-02-16T13:20:34.310Z,8.72
2023-02-16T13:23:58.476Z,8.72
2023-02-16T13:27:23.177Z,8.81
2023-02-16T13:30:55.005Z,8.79
2023-02-16T13:34:24.974Z,8.85
2023-02-16T13:41:21.229Z,8.88
2023-02-16T13:44:40.098Z,8.88
2023-02-16T13:47:54.697Z,8.91
2023-02-16T13:51:25.222Z,8.95
2023-02-16T13:58:34.441Z,8.93
2023-02-16T14:01:49.409Z,8.84
2023-02-16T14:05:13.827Z,8.83
2023-02-16T14:08:37.052Z,8.83
2023-02-16T14:12:12.172Z,8.80
2023-02-16T14:15:27.410Z,8.77
2023-02-16T14:18:46.500Z,8.82
2023-02-16T14:22:00.985Z,8.80
2023-02-16T14:25:49.596Z,8.73
2023-02-16T14:29:20.968Z,8.69
2023-02-16T14:32:39.334Z,8.67
2023-02-16T14:35:56.317Z,8.67
2023-02-16T14:39:13.175Z,8.63
2023-02-16T14:42:33.975Z,8.60
2023-02-16T14:46:27.558Z,8.55
2023-02-16T14:50:02.523Z,8.54
2023-02-16T14:54:05.905Z,8.52
2023-02-16T14:57:24.140Z,8.45
2023-02-16T15:00:42.602Z,8.39
2023-02-16T15:03:59.036Z,8.31
2023-02-16T15:07:12.718Z,8.29
2023-02-16T15:10:30.128Z,8.25
2023-02-16T15:13:43.938Z,8.15
2023-02-16T15:16:58.012Z,8.11
2023-02-16T15:20:18.653Z,8.07
2023-02-16T15:23:35.072Z,8.06
2023-02-16T15:26:52.521Z,7.94
2023-02-16T15:30:27.265Z,7.86
2023-02-16T15:33:44.036Z,7.82
2023-02-16T15:36:57.921Z,7.80
2023-02-16T15:40:25.870Z,7.75
2023-02-16T15:43:42.444Z,7.73
2023-02-16T15:46:56.079Z,7.68
2023-02-16T15:50:17.992Z,7.66
2023-02-16T15:56:50.602Z,7.60
2023-02-16T16:00:07.947Z,7.50
2023-02-16T16:03:28.289Z,7.43
2023-02-16T16:06:48.889Z,7.47
2023-02-16T16:10:03.983Z,7.42
2023-02-16T16:13:22.763Z,7.38
2023-02-16T16:16:37.853Z,7.39
2023-02-16T16:19:55.287Z,7.38
2023-02-16T16:23:11.375Z,7.34
2023-02-16T16:26:27.017Z,7.35
2023-02-16T16:29:44.898Z,7.30
2023-02-16T16:33:12.519Z,7.24
2023-02-16T16:36:27.098Z,7.22
2023-02-16T16:39:41.783Z,7.25
2023-02-16T16:43:11.352Z,7.13
2023-02-16T16:46:31.213Z,7.12
2023-02-16T16:49:52.773Z,7.11
2023-02-16T16:53:06.417Z,7.06
2023-02-16T16:56:21.325Z,7.01
2023-02-16T16:59:35.122Z,7.00
2023-02-16T17:02:49.818Z,6.94
2023-02-16T17:06:04.134Z,6.94
2023-02-16T17:09:30.677Z,6.94
2023-02-16T17:12:44.634Z,6.85
2023-02-16T17:16:01.184Z,6.86
2023-02-16T17:19:15.202Z,6.77
2023-02-16T17:22:29.252Z,6.72
2023-02-16T17:25:45.261Z,6.64
2023-02-16T17:28:59.215Z,6.54
2023-02-16T17:32:14.519Z,6.52
2023-02-16T17:35:28.496Z,6.47
2023-02-16T17:38:43.724Z,6.33
2023-02-16T17:41:57.726Z,6.29
2023-02-16T17:45:12.890Z,6.30
2023-02-16T17:48:31.574Z,6.21
2023-02-16T17:51:50.558Z,6.21
2023-02-16T17:55:04.472Z,6.17
2023-02-16T17:58:19.341Z,6.10
2023-02-16T18:01:35.424Z,6.01
2023-02-16T18:04:49.185Z,5.92
2023-02-16T18:08:04.074Z,5.82
2023-02-16T18:11:18.097Z,5.78
2023-02-16T18:14:32.051Z,5.71
2023-02-16T18:17:47.394Z,5.69
2023-02-16T18:21:01.746Z,5.65
2023-02-16T18:24:16.086Z,5.57
2023-02-16T18:27:30.694Z,5.48
2023-02-16T18:30:44.833Z,5.46
2023-02-16T18:33:59.325Z,5.52
2023-02-16T18:37:13.879Z,5.35
2023-02-16T18:40:29.111Z,5.32
2023-02-16T18:43:42.943Z,5.27
2023-02-16T18:46:57.002Z,5.22
2023-02-16T18:50:13.136Z,5.18
2023-02-16T18:53:27.476Z,5.11
2023-02-16T18:56:42.202Z,5.08
2023-02-16T18:59:56.821Z,5.07
2023-02-16T19:03:11.456Z,5.07
2023-02-16T19:06:26.209Z,5.03
2023-02-16T19:09:40.435Z,5.05
2023-02-16T19:12:54.220Z,5.01
2023-02-16T19:16:11.065Z,4.99
2023-02-16T19:19:30.074Z,4.92
2023-02-16T19:22:43.811Z,4.89
2023-02-16T19:25:57.907Z,4.77
2023-02-16T19:29:13.475Z,4.69
2023-02-16T19:32:27.891Z,4.62
2023-02-16T19:35:42.054Z,4.62
2023-02-16T19:38:56.104Z,4.49
2023-02-16T19:42:13.938Z,4.49
2023-02-16T19:45:28.169Z,4.54
2023-02-16T19:48:46.728Z,4.57
2023-02-16T19:52:03.108Z,4.57
2023-02-16T19:55:19.226Z,4.54
2023-02-16T19:58:34.212Z,4.57
2023-02-16T20:01:49.347Z,4.50
2023-02-16T20:05:06.069Z,4.49
2023-02-16T20:08:19.801Z,4.52
2023-02-16T20:11:35.112Z,4.41
2023-02-16T20:14:51.807Z,4.46
2023-02-16T20:18:09.112Z,4.48
2023-02-16T20:21:25.449Z,4.45
2023-02-16T20:24:40.388Z,4.41
2023-02-16T20:27:54.399Z,4.43
2023-02-16T20:31:12.105Z,4.37
2023-02-16T20:34:29.555Z,4.42
2023-02-16T20:37:43.517Z,4.37
2023-02-16T20:40:57.354Z,4.33
2023-02-16T20:44:11.630Z,4.27
2023-02-16T20:47:25.699Z,4.27
2023-02-16T20:50:45.795Z,4.18
2023-02-16T20:54:02.288Z,4.23
2023-02-16T20:57:26.386Z,4.22
2023-02-16T21:00:34.722Z,4.25
2023-02-16T21:03:51.848Z,4.24
2023-02-16T21:07:06.010Z,4.10
2023-02-16T21:10:21.118Z,4.17
2023-02-16T21:13:35.035Z,4.20
2023-02-16T21:16:52.449Z,4.15
2023-02-16T21:20:06.408Z,4.13
2023-02-16T21:23:20.153Z,4.09
2023-02-16T21:26:33.867Z,4.12
2023-02-16T21:29:47.718Z,4.18
2023-02-16T21:33:01.447Z,4.09
2023-02-16T21:36:17.956Z,4.13
2023-02-16T21:39:41.986Z,4.21
2023-02-16T21:42:56.162Z,4.19
2023-02-16T21:46:10.166Z,4.14
2023-02-16T21:49:25.825Z,4.15
2023-02-16T21:52:39.377Z,4.18
2023-02-16T21:56:07.652Z,4.13
2023-02-16T21:59:24.054Z,4.15
2023-02-16T22:02:39.536Z,4.09
2023-02-16T22:05:53.582Z,3.98
2023-02-16T22:09:09.378Z,4.02
2023-02-16T22:12:23.421Z,4.02
2023-02-16T22:15:37.590Z,4.03
2023-02-16T22:18:52.001Z,3.98
2023-02-16T22:22:05.689Z,3.93
2023-02-16T22:25:19.913Z,3.83
2023-02-16T22:28:34.004Z,3.75
2023-02-16T22:31:50.469Z,3.69
2023-02-16T22:35:04.543Z,3.61
2023-02-16T22:38:18.289Z,3.60
2023-02-16T22:41:31.911Z,3.57
2023-02-16T22:44:45.932Z,3.57
2023-02-16T22:47:59.723Z,3.58
2023-02-16T22:51:15.335Z,3.56
2023-02-16T22:54:29.079Z,3.50
2023-02-16T22:57:44.922Z,3.53
2023-02-16T23:00:58.956Z,3.46
2023-02-16T23:04:13.002Z,3.44
2023-02-16T23:07:26.612Z,3.42
2023-02-16T23:10:40.323Z,3.41
2023-02-16T23:13:54.074Z,3.42
2023-02-16T23:17:07.708Z,3.39
2023-02-16T23:20:21.460Z,3.36
2023-02-16T23:23:35.021Z,3.35
2023-02-16T23:26:49.590Z,3.31
2023-02-16T23:30:03.416Z,3.38
2023-02-16T23:33:17.484Z,3.43
2023-02-16T23:36:31.131Z,3.46
2023-02-16T23:39:44.719Z,3.48
2023-02-16T23:43:00.204Z,3.52
2023-02-16T23:46:14.274Z,3.51
2023-02-16T23:49:27.937Z,3.50
2023-02-16T23:52:41.561Z,3.49
2023-02-16T23:56:03.688Z,3.39
2023-02-16T23:59:17.613Z,3.42
